St Lucie County International Airport
KFPR : now visible

Airfield :











YOU CAN JOIN US ON...

 
LOGIN :

Register | Disclaimer

   EN    FR    IT 

 









Legend :    VFR   Marginal VFR   IFR   Intensive IFR   Very Intensive IFR
Visi :
Ceiling :
>= 8 km
>= 3000ft
5 to 8 km
1000 to 3000 ft
1500m to 5 km
500 to 1000 ft
800 to 1500m
200 to 500 ft
< 800m
< 200 ft
Symbols :   Thunderstorms  Fog  Heavy snow  Heavy precipitations  Wind > 20 kt






- Airport Elevation : 24 ft
- IATA code : FPR


KFPR - St Lucie County International

CURRENT METAR :
  • 042253Z 29009KT 10SM CLR 28/27 A2997 RMK AO2 SLP147 T02780267

EXPIRED METARs :
  • 042153Z 12004KT 10SM CLR 30/26 A2996 RMK AO2 LTG DSNT W SLP143 T03000256
  • 042053Z VRB03KT 10SM SCT025 BKN065 29/27 A2997 RMK AO2 LTG DSNT S SLP148 T02940267 51002 $

TAF KFPR
Valid from the 04 at 21:00 until the 05 at 18:00 UTC


042124Z 0421/0518 13007KT P6SM VCSH SCT035 BKN070
FM050000 16003KT P6SM FEW050 BKN250
FM051400 20004KT P6SM SCT035
FM051700 12010KT P6SM VCTS SCT040CB BKN100
KZMA FIR / North America



MET'MAP, your aeronautical weather chart ! - Copyright ORBIFLY December 2007 - Disclaimer

ORBIFLY MET'MAP TEAM :

Programming & Development : Alexandra Zaïnal
Concept & original design : Baudouin d'Aumeries
Assistance for programming : Marc-Olivier Méhu
Technical & hardware support : Manuel Goepfert

Contact : metmap@orbifly.com




SOURCES & CREDITS :

   NOAA       Earth
Advisory